Time;durP1;ratioP1;P1;durP2;ratioP2;P2;SDS_P1;SDS_P2;PMS_P1;PMS_P2;Temp;Humidity;BMP_temperature;BMP_pressure;BME280_temperature;BME280_humidity;BME280_pressure;Samples;Min_cycle;Max_cycle;Signal;HPM_P1;HPM_P2
2021/08/07 00:00:35;;;;;;;6.78;6.05;;;;;;;32.06;26.79;100367.16;144992;567;6005;-79
2021/08/07 00:03:08;;;;;;;6.57;5.78;;;;;;;32.05;26.32;100376.19;144992;598;6004;-82
2021/08/07 00:05:54;;;;;;;7.10;5.30;;;;;;;32.14;26.44;100374.75;144992;597;6004;-81
2021/08/07 00:08:29;;;;;;;6.75;5.15;;;;;;;32.08;26.02;100372.44;144992;714;6004;-86
2021/08/07 00:10:57;;;;;;;6.93;5.00;;;;;;;31.95;25.91;100385.81;144992;566;6004;-81
2021/08/07 00:13:32;;;;;;;7.55;4.90;;;;;;;32.03;26.42;100377.25;144992;603;6004;-86
2021/08/07 00:15:59;;;;;;;5.00;4.50;;;;;;;31.96;26.94;100383.03;144992;581;6004;-80
2021/08/07 00:18:26;;;;;;;5.97;4.10;;;;;;;32.00;26.05;100389.03;144992;567;6004;-82
2021/08/07 00:20:52;;;;;;;7.20;3.80;;;;;;;31.85;26.44;100395.41;144992;587;6004;-83
2021/08/07 00:23:18;;;;;;;3.95;3.50;;;;;;;31.78;26.22;100403.00;144992;595;6004;-82
2021/08/07 00:25:45;;;;;;;5.07;3.37;;;;;;;31.86;26.48;100400.66;144992;575;6004;-83
2021/08/07 00:28:12;;;;;;;3.78;2.97;;;;;;;31.86;25.50;100399.81;144992;572;6004;-85
2021/08/07 00:30:38;;;;;;;3.55;2.80;;;;;;;31.61;26.01;100406.75;144992;568;6004;-82
2021/08/07 00:33:05;;;;;;;4.47;3.12;;;;;;;31.61;25.75;100404.94;144992;648;6004;-82
2021/08/07 00:35:32;;;;;;;4.55;2.92;;;;;;;31.57;26.13;100400.72;144992;620;6004;-82
2021/08/07 00:37:58;;;;;;;2.92;2.47;;;;;;;31.53;25.98;100426.03;144992;644;6004;-81
2021/08/07 00:40:25;;;;;;;3.87;3.03;;;;;;;31.47;25.50;100421.88;144992;603;6004;-82
2021/08/07 00:42:52;;;;;;;4.53;2.50;;;;;;;31.45;26.15;100429.16;144992;587;6004;-83
2021/08/07 00:45:19;;;;;;;3.90;2.50;;;;;;;31.50;26.12;100427.97;144991;593;6000;-85
2021/08/07 00:47:46;;;;;;;3.17;2.17;;;;;;;31.55;25.92;100431.28;144992;569;6002;-82
2021/08/07 00:50:13;;;;;;;6.43;2.72;;;;;;;31.62;25.98;100429.94;144992;586;6002;-81
2021/08/07 00:52:42;;;;;;;8.45;2.83;;;;;;;31.55;25.74;100425.94;144992;582;6002;-82
2021/08/07 00:55:09;;;;;;;4.32;2.25;;;;;;;31.52;26.51;100434.13;144992;589;6002;-82
2021/08/07 00:57:36;;;;;;;8.02;2.75;;;;;;;31.49;26.54;100442.38;144992;609;6002;-83
2021/08/07 01:00:04;;;;;;;3.37;2.08;;;;;;;31.45;25.49;100433.63;144992;576;6002;-81
2021/08/07 01:02:31;;;;;;;3.50;2.05;;;;;;;31.31;25.68;100439.88;144992;613;6002;-80
2021/08/07 01:05:10;;;;;;;1.75;1.65;;;;;;;31.29;25.43;100429.25;144992;665;6002;-82
2021/08/07 01:08:26;;;;;;;3.78;2.00;;;;;;;31.41;25.86;100437.47;144992;689;6002;-83
2021/08/07 01:11:09;;;;;;;3.17;1.77;;;;;;;31.48;25.34;100446.84;144992;728;6002;-82
2021/08/07 01:13:41;;;;;;;4.00;1.83;;;;;;;31.62;24.92;100444.19;144992;695;6002;-83
2021/08/07 01:16:22;;;;;;;3.67;2.00;;;;;;;31.58;24.87;100442.69;144992;575;6002;-82
2021/08/07 01:18:50;;;;;;;3.10;2.00;;;;;;;31.45;25.82;100449.72;144992;634;6002;-80
2021/08/07 01:21:22;;;;;;;2.67;1.65;;;;;;;31.41;26.32;100443.69;144992;624;6002;-85
2021/08/07 01:24:04;;;;;;;3.28;1.85;;;;;;;31.36;26.15;100447.63;144992;575;6002;-81
2021/08/07 01:27:06;;;;;;;3.42;1.95;;;;;;;31.38;26.19;100446.56;144992;637;6002;-81
2021/08/07 01:29:34;;;;;;;5.40;1.90;;;;;;;31.28;24.36;100448.09;144992;566;6004;-84
2021/08/07 01:32:01;;;;;;;4.60;1.80;;;;;;;31.15;25.02;100455.16;144992;571;6004;-81
2021/08/07 01:34:31;;;;;;;4.15;1.70;;;;;;;31.13;25.51;100449.03;144992;616;6004;-82
2021/08/07 01:36:58;;;;;;;3.50;1.60;;;;;;;31.19;25.84;100452.19;144992;614;6004;-83
2021/08/07 01:39:24;;;;;;;5.37;1.80;;;;;;;31.29;25.69;100450.69;144992;660;6004;-81
2021/08/07 01:41:50;;;;;;;7.28;1.85;;;;;;;31.16;25.43;100451.53;144992;584;6004;-82
2021/08/07 01:44:17;;;;;;;4.47;1.70;;;;;;;31.12;25.74;100450.84;144992;581;6004;-80
2021/08/07 01:46:56;;;;;;;3.83;1.70;;;;;;;31.12;25.82;100453.53;144992;562;6004;-82
2021/08/07 01:49:38;;;;;;;1.75;1.45;;;;;;;31.17;26.35;100450.59;144992;561;6004;-80
2021/08/07 01:52:09;;;;;;;2.78;1.58;;;;;;;31.18;25.66;100455.84;144992;587;6004;-80
2021/08/07 01:54:40;;;;;;;3.17;1.52;;;;;;;31.23;26.29;100459.09;144992;668;6004;-83
2021/08/07 01:57:12;;;;;;;3.28;1.52;;;;;;;31.24;26.16;100462.62;144992;585;6004;-80
2021/08/07 01:59:40;;;;;;;2.10;1.40;;;;;;;31.22;25.58;100462.72;144992;580;6004;-81
2021/08/07 02:02:09;;;;;;;3.60;1.75;;;;;;;31.09;25.67;100454.56;144992;699;6004;-83
2021/08/07 02:04:37;;;;;;;1.95;1.50;;;;;;;30.99;25.54;100448.06;144992;569;6004;-83
2021/08/07 02:07:04;;;;;;;4.72;2.03;;;;;;;30.97;25.43;100454.47;144992;645;6005;-81
2021/08/07 02:09:31;;;;;;;4.57;1.42;;;;;;;30.98;25.86;100453.50;144992;645;6004;-84
2021/08/07 02:12:00;;;;;;;1.70;1.60;;;;;;;30.87;26.40;100451.44;144992;594;6004;-84
2021/08/07 02:14:28;;;;;;;1.85;1.58;;;;;;;30.85;26.39;100461.38;144992;581;6005;-82
2021/08/07 02:16:56;;;;;;;4.80;1.60;;;;;;;30.85;27.07;100456.88;144992;571;6004;-82
2021/08/07 02:19:23;;;;;;;2.53;1.40;;;;;;;30.79;26.61;100461.75;144992;601;6004;-81
2021/08/07 02:21:51;;;;;;;4.05;1.75;;;;;;;30.86;26.39;100461.31;144992;580;6004;-81
2021/08/07 02:24:17;;;;;;;4.85;1.80;;;;;;;30.92;26.44;100462.72;144992;640;6004;-85
2021/08/07 02:26:45;;;;;;;4.32;1.50;;;;;;;30.93;26.49;100461.78;144992;575;6004;-85
2021/08/07 02:29:11;;;;;;;1.90;1.37;;;;;;;30.97;26.48;100458.00;144992;596;6004;-84
2021/08/07 02:31:40;;;;;;;2.65;1.70;;;;;;;31.06;26.64;100473.53;144992;586;6004;-82
2021/08/07 02:34:10;;;;;;;2.78;1.55;;;;;;;30.97;27.10;100482.09;144992;567;6004;-84
2021/08/07 02:36:38;;;;;;;2.35;1.40;;;;;;;30.89;27.23;100479.00;144992;588;6004;-81
2021/08/07 02:39:04;;;;;;;2.78;1.33;;;;;;;30.84;26.45;100498.00;144992;605;6004;-80
2021/08/07 02:41:32;;;;;;;5.68;1.50;;;;;;;30.91;26.46;100498.53;144992;595;6004;-84
2021/08/07 02:44:01;;;;;;;2.60;1.42;;;;;;;30.85;26.28;100499.75;144992;612;6004;-82
2021/08/07 02:46:28;;;;;;;4.97;1.50;;;;;;;30.89;26.59;100504.00;144992;570;6004;-82
2021/08/07 02:48:56;;;;;;;2.42;1.30;;;;;;;30.83;26.09;100500.78;144992;586;6004;-82
2021/08/07 02:51:23;;;;;;;2.10;1.50;;;;;;;30.79;26.34;100501.94;144991;632;6000;-81
2021/08/07 02:53:50;;;;;;;1.65;1.27;;;;;;;30.79;26.80;100502.78;144992;572;6002;-82
2021/08/07 02:56:17;;;;;;;1.87;1.23;;;;;;;30.87;26.15;100505.03;144992;622;6002;-80
2021/08/07 02:58:44;;;;;;;3.65;1.20;;;;;;;30.79;26.09;100513.50;144992;577;6002;-82
2021/08/07 03:01:14;;;;;;;3.10;1.15;;;;;;;30.84;26.01;100510.56;144992;578;6002;-79
2021/08/07 03:03:41;;;;;;;1.60;1.12;;;;;;;30.93;25.63;100507.34;144992;576;6002;-82
2021/08/07 03:06:08;;;;;;;1.10;1.00;;;;;;;30.75;25.53;100511.94;144992;564;6002;-82
2021/08/07 03:08:34;;;;;;;1.27;1.00;;;;;;;30.74;26.05;100524.50;144992;587;6002;-82
2021/08/07 03:11:01;;;;;;;3.25;1.10;;;;;;;30.64;25.42;100528.66;144992;595;6002;-82
2021/08/07 03:13:27;;;;;;;2.62;1.10;;;;;;;30.60;25.75;100510.19;144992;569;6002;-83
2021/08/07 03:15:54;;;;;;;1.37;1.00;;;;;;;30.67;25.82;100517.78;144992;580;6002;-81
2021/08/07 03:18:20;;;;;;;1.37;1.00;;;;;;;30.72;25.74;100523.72;144992;641;6002;-81
2021/08/07 03:20:47;;;;;;;1.50;0.90;;;;;;;30.66;25.05;100521.41;144992;613;6002;-82
2021/08/07 03:23:13;;;;;;;1.00;0.90;;;;;;;30.73;25.11;100529.94;144992;636;6002;-81
2021/08/07 03:25:40;;;;;;;1.62;1.17;;;;;;;30.80;24.79;100539.34;144992;589;6002;-81
2021/08/07 03:28:08;;;;;;;2.03;1.10;;;;;;;30.74;24.84;100532.53;144992;597;6002;-82
2021/08/07 03:30:34;;;;;;;1.45;0.90;;;;;;;30.79;25.29;100532.25;144991;596;6002;-81
2021/08/07 03:33:01;;;;;;;2.60;1.00;;;;;;;30.75;24.98;100534.25;144992;605;6002;-85
2021/08/07 03:35:28;;;;;;;2.65;1.00;;;;;;;30.69;24.85;100544.47;144992;585;6002;-81
2021/08/07 03:37:54;;;;;;;2.33;1.10;;;;;;;30.84;25.26;100545.41;144992;578;6002;-81
2021/08/07 03:40:21;;;;;;;4.78;1.10;;;;;;;30.78;24.49;100532.34;144992;625;6002;-82
2021/08/07 03:42:47;;;;;;;3.80;1.20;;;;;;;30.81;25.17;100535.72;144992;597;6002;-82
2021/08/07 03:45:14;;;;;;;2.97;1.00;;;;;;;30.76;24.90;100551.19;144992;583;6002;-80
2021/08/07 03:47:48;;;;;;;5.10;1.08;;;;;;;30.79;25.72;100558.19;144992;583;6002;-80
2021/08/07 03:50:15;;;;;;;4.18;0.90;;;;;;;30.77;25.00;100557.41;144992;578;6002;-80
2021/08/07 03:52:41;;;;;;;14.93;1.62;;;;;;;30.63;25.13;100550.19;144992;575;6002;-80
2021/08/07 03:55:09;;;;;;;1.12;0.93;;;;;;;30.61;25.22;100549.37;144992;563;6002;-80
2021/08/07 03:57:55;;;;;;;2.58;1.10;;;;;;;30.61;26.11;100554.72;144992;592;6002;-81
2021/08/07 04:00:25;;;;;;;2.70;1.10;;;;;;;30.59;25.80;100560.19;144992;594;6002;-83
2021/08/07 04:02:51;;;;;;;1.45;0.90;;;;;;;30.52;26.25;100557.00;144992;576;6002;-83
2021/08/07 04:05:18;;;;;;;3.30;1.00;;;;;;;30.37;25.62;100547.12;144992;639;6002;-82
2021/08/07 04:07:45;;;;;;;1.20;0.90;;;;;;;30.27;25.69;100557.47;144992;570;6002;-82
2021/08/07 04:10:12;;;;;;;2.35;0.98;;;;;;;30.31;25.91;100561.72;144992;580;6002;-82
2021/08/07 04:12:39;;;;;;;1.00;0.90;;;;;;;30.17;25.77;100558.94;144992;632;6002;-81
2021/08/07 04:15:06;;;;;;;2.37;0.80;;;;;;;30.16;25.73;100557.19;144992;580;6002;-80
2021/08/07 04:17:35;;;;;;;1.00;0.90;;;;;;;30.21;26.21;100557.81;144992;589;6002;-81
2021/08/07 04:20:01;;;;;;;2.30;1.00;;;;;;;30.25;25.81;100567.41;144992;571;6002;-82
2021/08/07 04:22:27;;;;;;;2.30;0.82;;;;;;;30.25;25.83;100572.75;144992;633;6002;-80
2021/08/07 04:24:54;;;;;;;1.27;0.90;;;;;;;30.26;26.21;100585.19;144992;584;6002;-82
2021/08/07 04:27:20;;;;;;;2.22;0.93;;;;;;;30.30;26.03;100580.53;144992;566;6002;-80
2021/08/07 04:29:48;;;;;;;1.40;0.90;;;;;;;30.27;25.80;100581.56;144992;583;6002;-82
2021/08/07 04:32:22;;;;;;;1.60;1.00;;;;;;;30.35;25.71;100590.06;144992;628;6002;-81
2021/08/07 04:34:49;;;;;;;3.92;0.90;;;;;;;30.43;25.77;100594.13;144992;601;6002;-82
2021/08/07 04:37:16;;;;;;;1.52;0.90;;;;;;;30.40;26.24;100605.91;144992;601;6002;-81
2021/08/07 04:39:43;;;;;;;1.08;0.82;;;;;;;30.49;26.87;100610.72;144992;563;6002;-80
2021/08/07 04:42:09;;;;;;;1.85;1.10;;;;;;;30.61;26.13;100617.22;144992;569;6002;-81
2021/08/07 04:44:36;;;;;;;1.50;1.05;;;;;;;30.63;26.40;100615.31;144992;589;6011;-81
2021/08/07 04:47:03;;;;;;;1.77;0.98;;;;;;;30.70;25.94;100623.87;144992;570;6002;-81
2021/08/07 04:49:29;;;;;;;2.10;1.05;;;;;;;30.77;26.75;100624.38;144992;623;6002;-82
2021/08/07 04:51:56;;;;;;;3.60;1.27;;;;;;;30.74;25.87;100633.47;144992;577;6002;-80
2021/08/07 04:54:22;;;;;;;5.95;2.22;;;;;;;30.76;26.10;100626.22;144992;614;6002;-81
2021/08/07 04:56:49;;;;;;;4.00;1.30;;;;;;;30.73;26.25;100631.75;144992;590;6002;-81
2021/08/07 04:59:15;;;;;;;2.67;1.23;;;;;;;30.86;26.15;100632.78;144992;593;6002;-80
2021/08/07 05:01:41;;;;;;;1.20;1.00;;;;;;;30.87;26.14;100631.81;144992;616;6002;-81
2021/08/07 05:04:10;;;;;;;3.50;1.20;;;;;;;30.86;26.45;100632.78;144992;617;6002;-83
2021/08/07 05:06:37;;;;;;;3.53;1.20;;;;;;;30.89;26.02;100626.38;144992;583;6002;-81
2021/08/07 05:09:04;;;;;;;2.37;1.00;;;;;;;30.85;25.55;100640.91;144992;577;6002;-81
2021/08/07 05:11:30;;;;;;;2.12;0.90;;;;;;;30.92;26.50;100647.66;144992;592;6002;-80
2021/08/07 05:13:56;;;;;;;5.07;1.30;;;;;;;30.96;25.87;100645.66;144992;602;6002;-80
2021/08/07 05:16:23;;;;;;;3.60;1.10;;;;;;;30.96;25.22;100645.66;144992;624;6002;-80
2021/08/07 05:18:49;;;;;;;2.00;0.93;;;;;;;30.91;25.63;100646.78;144992;588;6002;-81
2021/08/07 05:21:16;;;;;;;1.48;0.88;;;;;;;30.84;25.74;100655.25;144992;572;6002;-80
2021/08/07 05:23:42;;;;;;;1.80;1.00;;;;;;;30.85;25.71;100657.00;144992;588;6002;-81
2021/08/07 05:26:09;;;;;;;1.08;0.77;;;;;;;30.87;25.89;100658.63;144992;615;6002;-80
2021/08/07 05:28:35;;;;;;;1.42;1.02;;;;;;;30.84;25.51;100663.28;144992;632;6002;-80
2021/08/07 05:31:02;;;;;;;3.20;1.45;;;;;;;30.98;25.61;100668.78;144992;591;6002;-81
2021/08/07 05:33:29;;;;;;;1.30;1.20;;;;;;;30.90;25.76;100663.81;144993;569;6002;-79
2021/08/07 05:35:57;;;;;;;2.25;1.30;;;;;;;30.88;25.35;100656.81;144993;581;6002;-81
2021/08/07 05:38:25;;;;;;;2.33;0.90;;;;;;;30.95;26.33;100662.69;144993;632;6002;-82
2021/08/07 05:40:51;;;;;;;2.10;1.00;;;;;;;31.08;26.26;100669.97;144993;565;6002;-81
2021/08/07 05:43:21;;;;;;;2.65;1.42;;;;;;;31.18;25.42;100669.44;144993;566;6002;-81
2021/08/07 05:45:47;;;;;;;1.70;0.85;;;;;;;31.21;25.50;100666.59;144993;592;6002;-80
2021/08/07 05:48:14;;;;;;;1.30;1.20;;;;;;;31.27;25.55;100679.62;144993;569;6002;-80
2021/08/07 05:50:40;;;;;;;3.78;1.20;;;;;;;31.25;25.15;100673.50;144993;586;6002;-83
2021/08/07 05:53:07;;;;;;;1.85;0.80;;;;;;;31.28;24.41;100676.88;144993;575;6002;-82
2021/08/07 05:55:33;;;;;;;4.37;1.00;;;;;;;31.31;25.42;100683.00;144993;578;6002;-81
2021/08/07 05:58:02;;;;;;;1.58;0.90;;;;;;;31.22;24.71;100682.59;144993;601;6002;-81
2021/08/07 06:00:29;;;;;;;1.52;0.88;;;;;;;31.24;25.06;100686.06;144993;629;6002;-82
2021/08/07 06:03:04;;;;;;;1.12;0.73;;;;;;;31.24;24.18;100687.84;144993;598;6002;-80
2021/08/07 06:05:33;;;;;;;1.45;0.85;;;;;;;31.34;24.83;100686.41;144992;579;6002;-79
2021/08/07 06:07:59;;;;;;;0.90;0.80;;;;;;;31.44;24.49;100690.25;144992;575;6002;-81
2021/08/07 06:10:27;;;;;;;1.27;0.80;;;;;;;31.62;24.81;100690.16;144992;566;6002;-84
2021/08/07 06:12:54;;;;;;;0.93;0.73;;;;;;;31.66;24.61;100694.41;144992;586;6002;-82
2021/08/07 06:15:20;;;;;;;2.10;1.00;;;;;;;31.62;24.38;100698.22;144992;564;6002;-79
2021/08/07 06:17:47;;;;;;;3.53;1.52;;;;;;;31.57;24.72;100703.84;144992;578;6002;-81
2021/08/07 06:20:14;;;;;;;3.25;1.17;;;;;;;31.60;24.71;100692.09;144993;577;6002;-81
2021/08/07 06:22:41;;;;;;;1.73;0.95;;;;;;;31.60;24.65;100694.75;144993;557;6002;-84
2021/08/07 06:25:09;;;;;;;0.90;0.70;;;;;;;31.63;24.46;100691.91;144993;641;6002;-83
2021/08/07 06:27:35;;;;;;;1.55;0.70;;;;;;;31.63;25.37;100692.75;144993;622;6003;-80
2021/08/07 06:30:02;;;;;;;1.73;0.80;;;;;;;31.72;25.12;100702.09;144993;579;6002;-81
2021/08/07 06:32:29;;;;;;;1.23;0.85;;;;;;;31.83;24.53;100705.00;144993;591;6002;-80
2021/08/07 06:34:55;;;;;;;1.23;0.93;;;;;;;31.83;25.07;100702.31;144993;570;6002;-82
2021/08/07 06:37:22;;;;;;;1.20;0.88;;;;;;;31.94;25.11;100708.84;144993;570;6002;-81
2021/08/07 06:39:48;;;;;;;2.15;0.85;;;;;;;31.87;25.27;100707.50;144993;594;6002;-81
2021/08/07 06:42:16;;;;;;;1.70;0.65;;;;;;;31.95;25.94;100713.28;144993;580;6002;-82
2021/08/07 06:44:43;;;;;;;2.78;0.68;;;;;;;31.89;25.38;100708.25;144993;580;6002;-84
2021/08/07 06:47:10;;;;;;;2.50;1.10;;;;;;;31.88;24.65;100714.56;144993;692;6002;-78
2021/08/07 06:49:36;;;;;;;3.28;0.90;;;;;;;31.84;25.33;100713.91;144993;573;6002;-81
2021/08/07 06:52:03;;;;;;;1.48;0.88;;;;;;;31.94;25.03;100714.22;144993;609;6002;-82
2021/08/07 06:54:30;;;;;;;4.55;0.90;;;;;;;31.93;25.16;100720.56;144993;579;6002;-80
2021/08/07 06:56:56;;;;;;;1.05;0.70;;;;;;;31.96;24.46;100718.53;144993;582;6002;-81
2021/08/07 06:59:22;;;;;;;1.30;0.70;;;;;;;32.08;24.99;100716.06;144993;594;6002;-80
2021/08/07 07:01:49;;;;;;;1.20;0.65;;;;;;;32.15;24.60;100709.38;144993;656;6002;-80
2021/08/07 07:04:16;;;;;;;1.02;0.82;;;;;;;32.19;24.13;100722.53;144993;671;6002;-80
2021/08/07 07:06:43;;;;;;;1.77;0.75;;;;;;;32.26;24.53;100711.41;144992;615;6002;-82
2021/08/07 07:09:09;;;;;;;2.58;0.75;;;;;;;32.20;24.44;100701.94;144993;675;6002;-81
2021/08/07 07:11:37;;;;;;;1.25;1.00;;;;;;;32.13;24.20;100716.69;144993;718;6002;-81
2021/08/07 07:14:05;;;;;;;0.60;0.60;;;;;;;32.13;24.04;100722.06;144994;697;5002;-82
2021/08/07 07:16:31;;;;;;;1.27;0.68;;;;;;;32.14;23.75;100724.66;144994;691;5002;-80
2021/08/07 07:18:58;;;;;;;1.37;0.80;;;;;;;32.24;23.67;100732.16;144994;588;5002;-82
2021/08/07 07:21:25;;;;;;;2.42;0.70;;;;;;;32.35;24.39;100719.78;144994;705;5002;-81
2021/08/07 07:23:51;;;;;;;1.33;1.05;;;;;;;32.51;23.84;100734.94;144994;642;5002;-81
2021/08/07 07:26:18;;;;;;;2.67;0.90;;;;;;;32.52;23.78;100737.53;144994;569;5002;-82
2021/08/07 07:28:44;;;;;;;1.33;0.98;;;;;;;32.60;23.74;100733.53;144994;603;5002;-83
2021/08/07 07:31:11;;;;;;;2.15;0.98;;;;;;;32.60;23.05;100738.91;144994;733;5002;-82
2021/08/07 07:33:44;;;;;;;3.20;1.00;;;;;;;32.59;22.65;100729.09;144994;614;5002;-82
2021/08/07 07:36:13;;;;;;;1.98;0.80;;;;;;;32.63;22.79;100731.53;144994;564;5002;-80
2021/08/07 07:38:39;;;;;;;2.65;1.00;;;;;;;32.69;22.48;100732.94;144994;584;5002;-81
2021/08/07 07:41:06;;;;;;;1.10;0.80;;;;;;;32.78;23.07;100736.91;144994;627;5002;-81
2021/08/07 07:43:35;;;;;;;1.25;0.82;;;;;;;32.75;23.17;100729.88;144994;660;5002;-80
2021/08/07 07:46:02;;;;;;;1.45;0.82;;;;;;;32.80;23.46;100733.13;144994;600;5002;-81
2021/08/07 07:48:28;;;;;;;3.15;0.70;;;;;;;32.91;23.97;100740.53;144994;578;5002;-80
2021/08/07 07:50:55;;;;;;;1.35;1.00;;;;;;;32.90;24.49;100739.66;144994;615;5002;-81
2021/08/07 07:53:22;;;;;;;2.00;1.30;;;;;;;33.02;24.56;100734.47;144994;662;5002;-81
2021/08/07 07:55:48;;;;;;;1.05;0.95;;;;;;;33.11;23.97;100735.72;144994;594;5002;-80
2021/08/07 07:58:15;;;;;;;2.08;1.20;;;;;;;33.05;23.82;100736.97;144994;572;5002;-81
2021/08/07 08:00:44;;;;;;;1.08;0.88;;;;;;;33.08;22.98;100731.38;144994;608;5002;-82
2021/08/07 08:03:10;;;;;;;1.35;1.00;;;;;;;33.03;23.80;100738.87;144994;650;5002;-81
2021/08/07 08:05:37;;;;;;;3.83;1.70;;;;;;;33.03;23.44;100733.50;144994;574;5002;-81
2021/08/07 08:08:04;;;;;;;3.25;1.60;;;;;;;33.04;23.69;100735.22;144994;603;5002;-82
2021/08/07 08:10:31;;;;;;;5.07;1.60;;;;;;;33.15;23.24;100738.06;144994;575;5002;-80
2021/08/07 08:12:57;;;;;;;2.87;2.12;;;;;;;33.07;22.75;100740.41;144994;605;5002;-80
2021/08/07 08:15:23;;;;;;;3.12;2.28;;;;;;;33.15;22.84;100739.91;144994;607;5002;-82
2021/08/07 08:17:50;;;;;;;2.60;1.80;;;;;;;33.21;22.58;100748.47;144994;564;5002;-83
2021/08/07 08:20:17;;;;;;;2.85;1.15;;;;;;;33.30;22.77;100752.41;144994;602;5011;-82
2021/08/07 08:22:43;;;;;;;2.35;1.30;;;;;;;33.35;22.55;100747.56;144994;596;5002;-81
2021/08/07 08:25:11;;;;;;;3.22;1.37;;;;;;;33.38;22.17;100743.84;144994;600;5002;-83
2021/08/07 08:27:39;;;;;;;1.00;0.80;;;;;;;33.51;22.35;100746.56;144994;567;5002;-81
2021/08/07 08:30:08;;;;;;;2.35;1.30;;;;;;;33.63;21.99;100751.12;144994;581;5002;-81
2021/08/07 08:32:34;;;;;;;4.78;3.97;;;;;;;33.64;21.81;100752.84;144994;687;5002;-82
2021/08/07 08:35:01;;;;;;;5.75;3.72;;;;;;;33.60;21.38;100754.88;144994;591;5002;-81
2021/08/07 08:37:28;;;;;;;8.68;6.12;;;;;;;33.70;21.45;100759.66;144994;583;5002;-84
2021/08/07 08:39:54;;;;;;;5.80;4.25;;;;;;;33.74;21.07;100763.88;144994;595;5002;-79
2021/08/07 08:42:22;;;;;;;5.60;3.85;;;;;;;33.67;21.03;100762.56;144994;606;5002;-82
2021/08/07 08:44:48;;;;;;;3.90;3.25;;;;;;;33.72;21.55;100763.13;144993;599;5002;-82
2021/08/07 08:47:20;;;;;;;4.07;2.53;;;;;;;33.73;21.47;100765.72;144994;598;5002;-84
2021/08/07 08:49:47;;;;;;;2.83;1.90;;;;;;;33.81;21.08;100762.53;144994;586;5002;-82
2021/08/07 08:52:17;;;;;;;4.07;2.20;;;;;;;33.94;20.57;100755.31;144994;577;5002;-81
2021/08/07 08:54:43;;;;;;;8.75;3.90;;;;;;;34.04;20.08;100757.41;144994;571;5002;-81
2021/08/07 08:57:10;;;;;;;4.82;2.28;;;;;;;33.89;20.29;100765.56;144994;699;5002;-81
2021/08/07 08:59:37;;;;;;;2.20;1.37;;;;;;;33.88;20.31;100757.56;144994;569;5002;-81
2021/08/07 09:02:03;;;;;;;1.95;1.17;;;;;;;33.89;20.35;100762.84;144994;555;5002;-83
2021/08/07 09:04:36;;;;;;;1.15;0.80;;;;;;;33.92;20.39;100756.41;144994;592;5002;-82
2021/08/07 09:07:05;;;;;;;3.25;1.08;;;;;;;34.01;20.36;100763.00;144994;620;5002;-80
2021/08/07 09:09:41;;;;;;;2.17;1.60;;;;;;;34.00;20.45;100764.84;144994;581;5002;-81
2021/08/07 09:12:09;;;;;;;6.00;3.75;;;;;;;34.05;19.87;100764.50;144994;566;5002;-82
2021/08/07 09:14:37;;;;;;;5.80;3.85;;;;;;;34.07;20.45;100762.56;144994;668;5002;-81
2021/08/07 09:17:14;;;;;;;4.93;2.45;;;;;;;34.03;20.64;100772.69;144994;598;5002;-81
2021/08/07 09:19:52;;;;;;;4.37;2.15;;;;;;;34.16;20.43;100776.25;144994;580;5002;-83
2021/08/07 09:22:23;;;;;;;3.05;1.15;;;;;;;34.12;20.67;100777.47;144994;598;5002;-83
2021/08/07 09:25:10;;;;;;;1.33;0.93;;;;;;;34.15;20.37;100773.69;144993;566;5002;-82
2021/08/07 09:27:49;;;;;;;3.33;1.40;;;;;;;34.14;20.79;100780.06;144994;604;5002;-82
2021/08/07 09:30:34;;;;;;;3.80;2.30;;;;;;;34.29;20.83;100783.53;144994;569;5002;-82
2021/08/07 09:33:20;;;;;;;3.37;3.08;;;;;;;34.38;20.63;100782.03;144994;588;5004;-81
2021/08/07 09:35:48;;;;;;;3.60;2.62;;;;;;;34.42;20.49;100791.62;144994;583;5004;-81
2021/08/07 09:38:22;;;;;;;3.10;1.87;;;;;;;34.48;19.90;100783.13;144994;653;5004;-82
2021/08/07 09:40:58;;;;;;;1.98;1.20;;;;;;;34.39;20.00;100797.22;144994;623;5004;-82
2021/08/07 09:43:48;;;;;;;3.22;2.97;;;;;;;34.35;20.33;100788.50;144994;603;5004;-83
2021/08/07 09:46:26;;;;;;;3.12;1.70;;;;;;;34.29;20.25;100797.00;144994;582;5004;-82
2021/08/07 09:48:58;;;;;;;1.50;1.40;;;;;;;34.35;20.31;100793.91;144994;670;5004;-81
2021/08/07 09:51:30;;;;;;;1.90;1.30;;;;;;;34.36;20.38;100800.13;144994;620;5004;-84
2021/08/07 09:54:07;;;;;;;1.80;1.30;;;;;;;34.41;20.18;100800.66;144994;608;5004;-83
2021/08/07 09:56:48;;;;;;;1.37;1.25;;;;;;;34.54;20.33;100801.56;144994;654;5004;-82
2021/08/07 09:59:16;;;;;;;1.27;1.00;;;;;;;34.64;19.93;100799.94;144994;736;5004;-82
2021/08/07 10:01:42;;;;;;;2.03;0.90;;;;;;;34.68;19.97;100798.75;144994;590;5004;-82
2021/08/07 10:04:11;;;;;;;1.27;1.00;;;;;;;34.69;20.53;100803.16;144993;584;5004;-81
2021/08/07 10:06:39;;;;;;;1.65;1.05;;;;;;;34.72;19.93;100809.31;144994;571;5002;-81
2021/08/07 10:09:07;;;;;;;1.23;0.88;;;;;;;34.74;19.58;100794.78;144994;652;5002;-83
2021/08/07 10:11:35;;;;;;;1.90;1.00;;;;;;;34.75;19.42;100798.34;144994;576;5002;-81
2021/08/07 10:14:02;;;;;;;1.00;0.90;;;;;;;34.83;19.62;100809.44;144994;566;5002;-82
2021/08/07 10:16:30;;;;;;;1.02;0.73;;;;;;;34.84;19.84;100803.06;144994;570;5002;-81
2021/08/07 10:18:57;;;;;;;0.90;0.90;;;;;;;34.89;19.45;100809.00;144994;571;5002;-83
2021/08/07 10:21:24;;;;;;;2.25;2.05;;;;;;;35.00;19.43;100806.41;144993;566;5002;-80
2021/08/07 10:23:53;;;;;;;7.65;6.57;;;;;;;35.00;19.54;100803.72;144994;594;5002;-82
2021/08/07 10:26:20;;;;;;;23.95;19.73;;;;;;;35.05;19.84;100803.37;144994;581;5002;-82
2021/08/07 10:28:54;;;;;;;9.20;8.20;;;;;;;35.21;20.08;100811.22;144994;580;5002;-83
2021/08/07 10:31:26;;;;;;;9.40;7.27;;;;;;;35.33;19.19;100804.94;144994;634;5002;-82
2021/08/07 10:33:56;;;;;;;3.58;2.95;;;;;;;35.31;19.11;100806.91;144994;584;5002;-82
2021/08/07 10:36:23;;;;;;;16.17;13.15;;;;;;;35.36;19.08;100807.41;144994;573;5002;-82
2021/08/07 10:38:51;;;;;;;17.37;15.48;;;;;;;35.34;19.25;100800.44;144994;597;5002;-82
2021/08/07 10:41:19;;;;;;;10.55;9.45;;;;;;;35.46;19.64;100790.53;144994;640;5003;-82
2021/08/07 10:43:52;;;;;;;10.65;9.52;;;;;;;35.50;18.49;100792.06;144994;628;5002;-83
2021/08/07 10:46:20;;;;;;;5.80;4.75;;;;;;;35.53;18.47;100789.13;144993;635;5002;-81
2021/08/07 10:48:54;;;;;;;3.40;2.72;;;;;;;35.65;18.24;100799.03;144994;658;5002;-82
2021/08/07 10:51:32;;;;;;;3.05;1.80;;;;;;;35.66;17.38;100784.53;144994;584;5002;-81
2021/08/07 10:54:23;;;;;;;18.15;13.13;;;;;;;35.82;17.23;100784.25;144993;577;5002;-80
2021/08/07 10:56:51;;;;;;;9.38;6.55;;;;;;;35.87;17.55;100792.00;144993;569;5004;-81
2021/08/07 10:59:23;;;;;;;26.98;23.92;;;;;;;35.84;18.03;100784.12;144994;675;5002;-83
2021/08/07 11:01:56;;;;;;;12.82;11.50;;;;;;;35.85;17.96;100784.03;144994;633;5002;-83
2021/08/07 11:04:50;;;;;;;9.52;8.52;;;;;;;35.87;17.64;100762.31;144994;593;5002;-83
2021/08/07 11:07:21;;;;;;;4.37;3.97;;;;;;;36.09;18.01;100778.56;144994;607;5004;-83
2021/08/07 11:10:09;;;;;;;4.12;2.00;;;;;;;36.21;17.51;100773.19;144994;583;5004;-82
2021/08/07 11:12:42;;;;;;;10.93;9.45;;;;;;;36.13;17.80;100774.66;144994;591;5004;-83
2021/08/07 11:15:13;;;;;;;27.95;25.00;;;;;;;36.17;17.80;100777.13;144994;576;5004;-81
2021/08/07 11:17:49;;;;;;;16.60;14.68;;;;;;;36.23;18.57;100779.37;144994;648;5004;-83
2021/08/07 11:20:37;;;;;;;8.50;7.60;;;;;;;36.29;18.28;100778.94;144994;587;5004;-80
2021/08/07 11:23:07;;;;;;;3.55;2.70;;;;;;;36.22;16.51;100770.38;144994;563;5002;-83
2021/08/07 11:25:52;;;;;;;2.17;1.95;;;;;;;36.20;17.73;100776.91;144994;580;5002;-82
2021/08/07 11:28:26;;;;;;;2.20;1.37;;;;;;;36.14;16.99;100775.53;144994;563;5002;-85
2021/08/07 11:31:16;;;;;;;1.77;1.40;;;;;;;36.07;17.85;100777.84;144993;582;5002;-83
2021/08/07 11:33:43;;;;;;;1.35;1.25;;;;;;;36.05;17.22;100782.50;144994;573;5002;-81
2021/08/07 11:36:13;;;;;;;2.15;1.40;;;;;;;36.11;17.72;100771.25;144994;651;5002;-87
2021/08/07 11:39:00;;;;;;;1.75;1.50;;;;;;;36.10;17.21;100777.59;144994;570;5002;-82
2021/08/07 11:41:33;;;;;;;1.40;1.00;;;;;;;36.13;17.54;100782.78;144994;581;5002;-81